createdAt,value
2022-12-11T00:00:10.658Z,70.40
2022-12-11T00:01:10.659Z,68.20
2022-12-11T00:02:10.735Z,68.00
2022-12-11T00:03:15.584Z,74.20
2022-12-11T00:04:11.636Z,70.40
2022-12-11T00:05:10.930Z,74.80
2022-12-11T00:06:10.607Z,71.60
2022-12-11T00:07:10.584Z,75.50
2022-12-11T00:08:10.612Z,71.60
2022-12-11T00:09:10.557Z,74.90
2022-12-11T00:10:10.599Z,75.80
2022-12-11T00:11:10.538Z,81.10
2022-12-11T00:12:10.587Z,79.00
2022-12-11T00:13:10.519Z,75.30
2022-12-11T00:14:10.537Z,80.60
2022-12-11T00:15:10.655Z,79.30
2022-12-11T00:16:10.648Z,75.80
2022-12-11T00:17:10.505Z,77.90
2022-12-11T00:18:10.519Z,74.30
2022-12-11T00:19:10.456Z,74.80
2022-12-11T00:20:10.467Z,71.10
2022-12-11T00:21:10.429Z,65.80
2022-12-11T00:22:10.470Z,66.40
2022-12-11T00:23:10.412Z,69.00
2022-12-11T00:24:10.409Z,66.10
2022-12-11T00:25:10.710Z,67.40
2022-12-11T00:26:10.388Z,69.20
2022-12-11T00:27:10.358Z,70.10
2022-12-11T00:28:10.412Z,69.30
2022-12-11T00:29:10.349Z,71.20
2022-12-11T00:30:10.419Z,70.00
2022-12-11T00:31:10.328Z,67.90
2022-12-11T00:32:10.740Z,71.00
2022-12-11T00:33:10.309Z,75.10
2022-12-11T00:34:10.339Z,71.20
2022-12-11T00:35:10.665Z,76.90
2022-12-11T00:36:10.282Z,73.90
2022-12-11T00:37:10.293Z,72.40
2022-12-11T00:38:10.263Z,74.20
2022-12-11T00:39:10.238Z,76.40
2022-12-11T00:40:10.278Z,76.70
2022-12-11T00:41:10.226Z,72.20
2022-12-11T00:42:10.270Z,74.70
2022-12-11T00:43:10.208Z,68.90
2022-12-11T00:44:10.210Z,66.90
2022-12-11T00:45:10.556Z,78.10
2022-12-11T00:46:10.273Z,74.80
2022-12-11T00:47:10.159Z,77.80
2022-12-11T00:48:10.201Z,76.10
2022-12-11T00:49:10.146Z,72.80
2022-12-11T00:50:10.138Z,79.00
2022-12-11T00:51:10.117Z,77.30
2022-12-11T00:52:10.143Z,74.10
2022-12-11T00:53:10.108Z,73.90
2022-12-11T00:54:10.221Z,77.20
2022-12-11T00:55:10.409Z,74.30
2022-12-11T00:56:10.079Z,75.70
2022-12-11T00:57:10.062Z,76.40
2022-12-11T00:58:10.074Z,81.20
2022-12-11T00:59:10.059Z,79.90
2022-12-11T01:00:10.044Z,75.30
2022-12-11T01:01:10.072Z,79.90
2022-12-11T01:02:10.003Z,74.10
2022-12-11T01:03:10.030Z,81.20
2022-12-11T01:04:09.999Z,79.00
2022-12-11T01:05:10.337Z,81.20
2022-12-11T01:06:09.999Z,82.80
2022-12-11T01:07:09.951Z,76.80
2022-12-11T01:08:10.019Z,79.10
2022-12-11T01:09:09.939Z,84.50
2022-12-11T01:10:09.995Z,84.60
2022-12-11T01:11:09.920Z,81.60
2022-12-11T01:12:09.915Z,77.90
2022-12-11T01:13:09.880Z,78.70
2022-12-11T01:14:10.010Z,78.50
2022-12-11T01:15:10.144Z,83.50
2022-12-11T01:16:09.879Z,83.60
2022-12-11T01:17:09.858Z,77.30
2022-12-11T01:18:09.951Z,82.50
2022-12-11T01:19:09.830Z,84.00
2022-12-11T01:20:09.857Z,76.40
2022-12-11T01:21:09.815Z,81.50
2022-12-11T01:22:09.848Z,84.30
2022-12-11T01:23:09.805Z,80.70
2022-12-11T01:24:09.806Z,80.00
2022-12-11T01:25:10.097Z,79.50
2022-12-11T01:26:09.838Z,87.30
2022-12-11T01:27:09.740Z,81.70
2022-12-11T01:28:09.730Z,80.80
2022-12-11T01:29:09.720Z,85.60
2022-12-11T01:30:09.747Z,83.00
2022-12-11T01:31:09.739Z,86.40
2022-12-11T01:32:09.724Z,83.70
2022-12-11T01:33:09.669Z,78.70
2022-12-11T01:34:09.666Z,82.50
2022-12-11T01:35:09.915Z,86.20
2022-12-11T01:36:09.655Z,88.50
2022-12-11T01:37:09.641Z,84.00
2022-12-11T01:38:09.631Z,87.90
2022-12-11T01:39:09.620Z,82.30
2022-12-11T01:40:09.607Z,83.40
2022-12-11T01:41:09.599Z,85.30
2022-12-11T01:42:09.617Z,80.40
2022-12-11T01:43:09.569Z,84.00
2022-12-11T01:44:09.573Z,82.10
2022-12-11T01:45:09.690Z,83.30
2022-12-11T01:46:09.621Z,84.00
2022-12-11T01:47:09.524Z,79.70
2022-12-11T01:48:09.557Z,81.80
2022-12-11T01:49:09.501Z,85.90
2022-12-11T01:50:09.561Z,81.20
2022-12-11T01:51:09.506Z,85.80
2022-12-11T01:52:09.527Z,85.00
2022-12-11T01:53:09.462Z,76.50
2022-12-11T01:54:09.452Z,81.70
2022-12-11T01:55:09.869Z,73.30
2022-12-11T01:56:09.501Z,81.30
2022-12-11T01:57:09.413Z,78.60
2022-12-11T01:58:09.589Z,75.90
2022-12-11T01:59:09.401Z,79.50
2022-12-11T02:00:09.401Z,72.50
2022-12-11T02:01:09.443Z,72.00
2022-12-11T02:02:09.491Z,75.00
2022-12-11T02:03:09.353Z,79.30
2022-12-11T02:04:09.384Z,72.10
2022-12-11T02:05:09.540Z,71.50
2022-12-11T02:06:09.443Z,67.60
2022-12-11T02:07:09.314Z,72.10
2022-12-11T02:08:09.444Z,74.30
2022-12-11T02:09:09.293Z,73.00
2022-12-11T02:10:09.352Z,73.30
2022-12-11T02:11:09.345Z,72.50
2022-12-11T02:12:09.298Z,67.70
2022-12-11T02:13:09.254Z,76.20
2022-12-11T02:14:09.247Z,71.50
2022-12-11T02:15:09.633Z,77.70
2022-12-11T02:16:09.272Z,73.00
2022-12-11T02:17:09.232Z,72.20
2022-12-11T02:18:09.230Z,69.60
2022-12-11T02:19:09.194Z,72.80
2022-12-11T02:20:09.253Z,70.90
2022-12-11T02:21:09.175Z,71.50
2022-12-11T02:22:09.222Z,76.40
2022-12-11T02:23:09.162Z,80.60
2022-12-11T02:24:09.156Z,78.30
2022-12-11T02:25:09.407Z,73.80
2022-12-11T02:26:09.197Z,78.00
2022-12-11T02:27:09.122Z,76.60
2022-12-11T02:28:09.133Z,82.90
2022-12-11T02:29:09.119Z,78.20
2022-12-11T02:30:09.066Z,82.10
2022-12-11T02:31:09.104Z,78.40
2022-12-11T02:32:09.214Z,77.30
2022-12-11T02:33:09.042Z,83.50
2022-12-11T02:34:09.036Z,79.80
2022-12-11T02:35:09.439Z,81.30
2022-12-11T02:36:09.062Z,81.30
2022-12-11T02:37:09.015Z,71.70
2022-12-11T02:38:09.074Z,79.80
2022-12-11T02:39:08.995Z,77.40
2022-12-11T02:40:09.120Z,73.20
2022-12-11T02:41:08.964Z,75.30
2022-12-11T02:42:09.051Z,75.00
2022-12-11T02:43:08.941Z,76.30
2022-12-11T02:44:08.987Z,74.00
2022-12-11T02:45:09.216Z,78.00
2022-12-11T02:46:08.953Z,79.20
2022-12-11T02:47:08.903Z,73.30
2022-12-11T02:48:08.916Z,74.80
2022-12-11T02:49:08.874Z,72.70
2022-12-11T02:50:08.864Z,78.50
2022-12-11T02:51:08.854Z,73.50
2022-12-11T02:52:08.924Z,71.10
2022-12-11T02:53:08.853Z,74.40
2022-12-11T02:54:08.932Z,75.50
2022-12-11T02:55:09.273Z,74.80
2022-12-11T02:56:09.027Z,75.20
2022-12-11T02:57:08.814Z,71.30
2022-12-11T02:58:08.845Z,72.80
2022-12-11T02:59:08.780Z,73.90
2022-12-11T03:00:08.782Z,77.00
2022-12-11T03:01:08.792Z,78.10
2022-12-11T03:02:08.816Z,73.00
2022-12-11T03:03:08.726Z,73.60
2022-12-11T03:04:08.784Z,73.10
2022-12-11T03:05:09.218Z,80.00
2022-12-11T03:06:08.736Z,72.70
2022-12-11T03:07:08.695Z,75.90
2022-12-11T03:08:08.724Z,75.10
2022-12-11T03:09:08.677Z,71.20
2022-12-11T03:10:08.867Z,74.90
2022-12-11T03:11:08.664Z,72.00
2022-12-11T03:12:08.751Z,72.30
2022-12-11T03:13:08.675Z,76.40
2022-12-11T03:14:08.704Z,70.50
2022-12-11T03:15:09.025Z,71.10
2022-12-11T03:16:08.689Z,68.90
2022-12-11T03:17:08.574Z,71.60
2022-12-11T03:18:08.593Z,69.40
2022-12-11T03:19:08.555Z,71.40
2022-12-11T03:20:08.581Z,71.30
2022-12-11T03:21:08.535Z,67.90
2022-12-11T03:22:08.756Z,61.10
2022-12-11T03:23:08.526Z,65.30
2022-12-11T03:24:08.515Z,66.10
2022-12-11T03:25:08.781Z,65.20
2022-12-11T03:26:08.518Z,64.50
2022-12-11T03:27:11.287Z,64.50
2022-12-11T03:28:08.502Z,64.50
2022-12-11T03:29:08.521Z,63.70
2022-12-11T03:30:08.494Z,62.00
2022-12-11T03:31:08.479Z,62.00
2022-12-11T03:32:08.436Z,66.00
2022-12-11T03:33:08.415Z,62.70
2022-12-11T03:34:08.405Z,63.50
2022-12-11T03:35:08.385Z,64.40
2022-12-11T03:36:08.376Z,62.00
2022-12-11T03:37:08.365Z,59.80
2022-12-11T03:38:08.385Z,60.90
2022-12-11T03:39:08.447Z,62.60
2022-12-11T03:40:08.377Z,62.20
2022-12-11T03:41:08.325Z,55.40
2022-12-11T03:42:08.388Z,61.90
2022-12-11T03:43:08.328Z,63.00
2022-12-11T03:44:08.376Z,59.90
2022-12-11T03:45:08.520Z,61.10
2022-12-11T03:46:08.332Z,59.20
2022-12-11T03:47:08.265Z,59.30
2022-12-11T03:48:08.286Z,63.90
2022-12-11T03:49:08.234Z,64.10
2022-12-11T03:50:08.403Z,59.90
2022-12-11T03:51:08.257Z,64.40
2022-12-11T03:52:08.206Z,60.00
2022-12-11T03:53:08.241Z,58.70
2022-12-11T03:54:08.256Z,59.20
2022-12-11T03:55:08.524Z,56.30
2022-12-11T03:56:08.216Z,62.30
2022-12-11T03:57:08.156Z,62.70
2022-12-11T03:58:08.177Z,58.80
2022-12-11T03:59:08.158Z,60.90
2022-12-11T04:00:08.146Z,58.60
2022-12-11T04:01:08.161Z,63.10
2022-12-11T04:02:08.225Z,60.20
2022-12-11T04:03:12.986Z,60.10
2022-12-11T04:04:09.106Z,61.10
2022-12-11T04:05:08.345Z,59.00
2022-12-11T04:06:08.070Z,58.40
2022-12-11T04:07:08.039Z,58.20
2022-12-11T04:08:08.186Z,62.70
2022-12-11T04:09:08.029Z,57.90
2022-12-11T04:10:08.033Z,56.40
2022-12-11T04:11:08.018Z,57.10
2022-12-11T04:12:08.014Z,57.90
2022-12-11T04:13:08.016Z,62.30
2022-12-11T04:14:08.017Z,59.50
2022-12-11T04:15:08.037Z,56.90
2022-12-11T04:16:07.992Z,57.60
2022-12-11T04:17:07.939Z,56.60
2022-12-11T04:18:07.951Z,62.50
2022-12-11T04:19:07.921Z,60.20
2022-12-11T04:20:07.937Z,59.70
2022-12-11T04:21:07.897Z,59.00
2022-12-11T04:22:07.949Z,62.00
2022-12-11T04:23:07.888Z,59.80
2022-12-11T04:24:07.949Z,61.70
2022-12-11T04:25:08.142Z,60.00
2022-12-11T04:26:07.987Z,61.90
2022-12-11T04:27:07.997Z,60.10
2022-12-11T04:28:07.886Z,64.90
2022-12-11T04:29:07.907Z,63.20
2022-12-11T04:30:07.828Z,63.20
2022-12-11T04:31:07.986Z,59.20
2022-12-11T04:32:07.818Z,61.50
2022-12-11T04:33:07.784Z,57.00
2022-12-11T04:34:07.780Z,59.30
2022-12-11T04:35:08.117Z,59.40
2022-12-11T04:36:07.775Z,61.70
2022-12-11T04:37:07.720Z,55.90
2022-12-11T04:38:08.017Z,57.90
2022-12-11T04:39:07.696Z,59.30
2022-12-11T04:40:07.710Z,56.10
2022-12-11T04:41:07.706Z,61.30
2022-12-11T04:42:07.706Z,55.30
2022-12-11T04:43:07.678Z,59.10
2022-12-11T04:44:07.708Z,59.40
2022-12-11T04:45:07.856Z,56.00
2022-12-11T04:46:07.669Z,58.70
2022-12-11T04:47:07.628Z,59.40
2022-12-11T04:48:07.727Z,60.10
2022-12-11T04:49:07.602Z,66.50
2022-12-11T04:50:07.605Z,57.00
2022-12-11T04:51:07.577Z,60.10
2022-12-11T04:52:07.656Z,61.80
2022-12-11T04:53:07.567Z,58.30
2022-12-11T04:54:07.764Z,56.40
2022-12-11T04:55:07.674Z,57.10
2022-12-11T04:56:07.583Z,57.40
2022-12-11T04:57:07.509Z,56.90
2022-12-11T04:58:07.538Z,60.10
2022-12-11T04:59:07.499Z,53.80
2022-12-11T05:00:07.512Z,61.00
2022-12-11T05:01:07.467Z,55.50
2022-12-11T05:02:07.604Z,60.60
2022-12-11T05:03:07.475Z,57.20
2022-12-11T05:04:07.527Z,59.30
2022-12-11T05:05:07.454Z,60.00
2022-12-11T05:06:07.470Z,54.40
2022-12-11T05:07:07.408Z,58.50
2022-12-11T05:08:07.699Z,57.40
2022-12-11T05:09:07.478Z,56.00
2022-12-11T05:10:07.420Z,53.90
2022-12-11T05:11:07.359Z,58.80
2022-12-11T05:12:07.460Z,57.60
2022-12-11T05:13:07.359Z,57.70
2022-12-11T05:14:07.443Z,53.90
2022-12-11T05:15:07.338Z,57.00
2022-12-11T05:16:07.446Z,58.20
2022-12-11T05:17:07.308Z,57.80
2022-12-11T05:18:07.408Z,56.10
2022-12-11T05:19:07.289Z,60.60
2022-12-11T05:20:07.372Z,56.10
2022-12-11T05:21:07.258Z,56.40
2022-12-11T05:22:07.339Z,61.00
2022-12-11T05:23:07.239Z,57.80
2022-12-11T05:24:07.325Z,55.80
2022-12-11T05:25:07.288Z,54.30
2022-12-11T05:26:07.239Z,61.80
2022-12-11T05:27:07.210Z,56.40
2022-12-11T05:28:07.211Z,57.00
2022-12-11T05:29:07.189Z,60.60
2022-12-11T05:30:07.180Z,58.50
2022-12-11T05:31:07.212Z,53.80
2022-12-11T05:32:07.189Z,57.90
2022-12-11T05:33:07.139Z,57.80
2022-12-11T05:34:07.230Z,54.30
2022-12-11T05:35:07.111Z,58.20
2022-12-11T05:36:07.105Z,55.90
2022-12-11T05:37:07.100Z,54.80
2022-12-11T05:38:07.159Z,53.90
2022-12-11T05:39:07.089Z,55.30
2022-12-11T05:40:07.205Z,55.50
2022-12-11T05:41:07.061Z,59.10
2022-12-11T05:42:07.060Z,53.80
2022-12-11T05:43:07.069Z,56.10
2022-12-11T05:44:07.133Z,60.80
2022-12-11T05:45:07.001Z,58.40
2022-12-11T05:46:07.116Z,62.60
2022-12-11T05:47:06.991Z,57.40
2022-12-11T05:48:07.083Z,56.50
2022-12-11T05:49:06.999Z,57.70
2022-12-11T05:50:07.000Z,54.70
2022-12-11T05:51:06.952Z,58.40
2022-12-11T05:52:07.042Z,55.90
2022-12-11T05:53:06.923Z,63.70
2022-12-11T05:54:06.992Z,60.20
2022-12-11T05:55:06.904Z,61.30
2022-12-11T05:56:06.931Z,57.70
2022-12-11T05:57:06.882Z,58.10
2022-12-11T05:58:06.953Z,61.80
2022-12-11T05:59:06.870Z,60.60
2022-12-11T06:00:06.902Z,58.40
2022-12-11T06:01:06.840Z,61.50
2022-12-11T06:02:06.878Z,61.80
2022-12-11T06:03:06.921Z,59.50
2022-12-11T06:04:06.840Z,60.40
2022-12-11T06:05:06.807Z,62.50
2022-12-11T06:06:06.832Z,59.10
2022-12-11T06:07:06.782Z,58.20
2022-12-11T06:08:06.893Z,62.40
2022-12-11T06:09:06.762Z,62.00
2022-12-11T06:10:06.764Z,60.50
2022-12-11T06:11:06.739Z,57.50
2022-12-11T06:12:06.779Z,62.60
2022-12-11T06:13:06.712Z,63.50
2022-12-11T06:14:06.711Z,67.20
2022-12-11T06:15:06.710Z,62.40
2022-12-11T06:16:06.806Z,61.40
2022-12-11T06:17:06.671Z,58.60
2022-12-11T06:18:06.730Z,61.90
2022-12-11T06:19:06.652Z,63.40
2022-12-11T06:20:06.743Z,59.40
2022-12-11T06:21:06.621Z,65.90
2022-12-11T06:22:06.673Z,59.90
2022-12-11T06:23:06.614Z,62.70
2022-12-11T06:24:06.636Z,66.10
2022-12-11T06:25:06.589Z,62.00
2022-12-11T06:26:06.611Z,62.00
2022-12-11T06:27:06.572Z,58.80
2022-12-11T06:28:06.565Z,59.80
2022-12-11T06:29:10.955Z,60.10
2022-12-11T06:30:07.664Z,62.30
2022-12-11T06:31:06.522Z,60.80
2022-12-11T06:32:06.659Z,64.10
2022-12-11T06:33:06.524Z,64.10
2022-12-11T06:34:06.541Z,67.50
2022-12-11T06:35:06.485Z,67.80
2022-12-11T06:36:06.505Z,69.20
2022-12-11T06:37:06.454Z,70.80
2022-12-11T06:38:06.621Z,72.00
2022-12-11T06:39:06.443Z,65.70
2022-12-11T06:40:06.514Z,59.60
2022-12-11T06:41:06.417Z,55.90
2022-12-11T06:42:06.485Z,56.10
2022-12-11T06:43:06.404Z,55.50
2022-12-11T06:44:06.439Z,59.90
2022-12-11T06:45:06.394Z,57.40
2022-12-11T06:46:06.430Z,52.50
2022-12-11T06:47:06.352Z,50.10
2022-12-11T06:48:06.419Z,51.70
2022-12-11T06:49:06.334Z,51.50
2022-12-11T06:50:06.334Z,57.00
2022-12-11T06:51:06.305Z,52.80
2022-12-11T06:52:06.373Z,53.80
2022-12-11T06:53:06.303Z,51.30
2022-12-11T06:54:06.393Z,57.40
2022-12-11T06:55:06.293Z,63.40
2022-12-11T06:56:06.311Z,58.20
2022-12-11T06:57:06.251Z,55.00
2022-12-11T06:58:06.252Z,56.80
2022-12-11T06:59:07.653Z,57.50
2022-12-11T07:00:06.243Z,58.70
2022-12-11T07:01:06.225Z,54.70
2022-12-11T07:02:06.260Z,59.20
2022-12-11T07:03:06.191Z,58.10
2022-12-11T07:04:06.193Z,55.40
2022-12-11T07:05:06.186Z,57.50
2022-12-11T07:06:06.156Z,55.10
2022-12-11T07:07:06.135Z,55.60
2022-12-11T07:08:06.192Z,53.40
2022-12-11T07:09:06.131Z,55.20
2022-12-11T07:10:08.621Z,59.90
2022-12-11T07:11:06.096Z,61.60
2022-12-11T07:12:06.144Z,61.80
2022-12-11T07:13:06.064Z,68.90
2022-12-11T07:14:06.113Z,66.90
2022-12-11T07:15:06.064Z,67.90
2022-12-11T07:16:06.079Z,69.40
2022-12-11T07:17:06.053Z,73.90
2022-12-11T07:18:06.023Z,70.30
2022-12-11T07:19:06.005Z,71.10
2022-12-11T07:20:06.031Z,73.20
2022-12-11T07:21:05.999Z,80.00
2022-12-11T07:22:06.063Z,78.10
2022-12-11T07:23:05.974Z,75.30
2022-12-11T07:24:05.974Z,82.70
2022-12-11T07:25:05.955Z,78.20
2022-12-11T07:26:05.959Z,82.10
2022-12-11T07:27:05.937Z,79.90
2022-12-11T07:28:05.938Z,89.40
2022-12-11T07:29:05.943Z,85.30
2022-12-11T07:30:05.989Z,84.50
2022-12-11T07:31:05.875Z,92.30
2022-12-11T07:32:05.977Z,88.10
2022-12-11T07:33:05.874Z,88.30
2022-12-11T07:34:05.858Z,87.20
2022-12-11T07:35:05.854Z,90.10
2022-12-11T07:36:05.845Z,88.50
2022-12-11T07:37:05.818Z,92.70
2022-12-11T07:38:05.819Z,91.70
2022-12-11T07:39:05.794Z,95.10
2022-12-11T07:40:05.849Z,94.00
2022-12-11T07:41:05.775Z,97.20
2022-12-11T07:42:05.814Z,96.60
2022-12-11T07:43:05.776Z,90.70
2022-12-11T07:44:05.786Z,99.00
2022-12-11T07:45:05.753Z,99.90
2022-12-11T07:46:05.845Z,96.60
2022-12-11T07:47:06.005Z,95.00
2022-12-11T07:48:05.703Z,97.70
2022-12-11T07:49:05.689Z,99.30
2022-12-11T07:50:05.719Z,99.50
2022-12-11T07:51:05.720Z,103.10
2022-12-11T07:52:05.683Z,104.10
2022-12-11T07:53:05.648Z,92.50
2022-12-11T07:54:05.652Z,104.40
2022-12-11T07:55:05.624Z,101.10
2022-12-11T07:56:05.689Z,106.90
2022-12-11T07:57:08.164Z,103.90
2022-12-11T07:58:06.678Z,102.20
2022-12-11T07:59:05.587Z,99.60
2022-12-11T08:00:05.633Z,103.80
2022-12-11T08:01:05.633Z,106.80
2022-12-11T08:02:05.633Z,105.90
2022-12-11T08:03:05.544Z,102.00
2022-12-11T08:04:05.536Z,107.60
2022-12-11T08:05:05.544Z,102.80
2022-12-11T08:06:05.536Z,104.20
2022-12-11T08:07:05.495Z,107.20
2022-12-11T08:08:05.557Z,98.50
2022-12-11T08:09:05.498Z,131.40
2022-12-11T08:10:05.474Z,141.90
2022-12-11T08:11:05.468Z,117.10
2022-12-11T08:12:05.461Z,112.80
2022-12-11T08:13:05.425Z,110.90
2022-12-11T08:14:05.428Z,103.80
2022-12-11T08:15:05.498Z,110.30
2022-12-11T08:16:05.425Z,99.90
2022-12-11T08:17:05.494Z,98.50
2022-12-11T08:18:05.468Z,105.80
2022-12-11T08:19:05.400Z,102.30
2022-12-11T08:20:05.442Z,99.10
2022-12-11T08:21:05.365Z,99.10
2022-12-11T08:22:05.350Z,96.70
2022-12-11T08:23:05.335Z,108.60
2022-12-11T08:24:05.469Z,105.00
2022-12-11T08:25:05.307Z,102.90
2022-12-11T08:26:05.309Z,96.50
2022-12-11T08:27:05.295Z,100.80
2022-12-11T08:28:05.404Z,95.10
2022-12-11T08:29:05.267Z,98.30
2022-12-11T08:30:05.288Z,99.30
2022-12-11T08:31:05.344Z,99.80
2022-12-11T08:32:10.546Z,100.10
2022-12-11T08:33:06.217Z,106.30
2022-12-11T08:34:05.251Z,98.20
2022-12-11T08:35:05.199Z,100.30
2022-12-11T08:36:05.217Z,93.10
2022-12-11T08:37:05.186Z,96.00
2022-12-11T08:38:05.187Z,99.40
2022-12-11T08:39:05.161Z,103.70
2022-12-11T08:40:05.147Z,103.60
2022-12-11T08:41:05.170Z,100.20
2022-12-11T08:42:05.180Z,97.30
2022-12-11T08:43:05.191Z,102.10
2022-12-11T08:44:06.104Z,90.90
2022-12-11T08:45:05.117Z,99.10
2022-12-11T08:46:05.146Z,99.20
2022-12-11T08:47:05.084Z,94.60
2022-12-11T08:48:05.218Z,96.10
2022-12-11T08:49:05.048Z,92.60
2022-12-11T08:50:05.058Z,90.20
2022-12-11T08:51:05.049Z,92.80
2022-12-11T08:52:05.040Z,94.90
2022-12-11T08:53:05.203Z,87.90
2022-12-11T08:54:05.036Z,88.40
2022-12-11T08:55:04.988Z,87.60
2022-12-11T08:56:04.992Z,89.80
2022-12-11T08:57:04.977Z,84.90
2022-12-11T08:58:05.076Z,81.30
2022-12-11T08:59:04.988Z,82.60
2022-12-11T09:00:04.996Z,85.70
2022-12-11T09:01:04.999Z,87.90
2022-12-11T09:02:04.930Z,92.00
2022-12-11T09:03:08.475Z,83.50
2022-12-11T09:04:06.005Z,86.80
2022-12-11T09:05:04.902Z,89.50
2022-12-11T09:06:04.939Z,90.00
2022-12-11T09:07:04.859Z,83.80
2022-12-11T09:08:04.928Z,79.90
2022-12-11T09:09:04.840Z,88.70
2022-12-11T09:10:04.849Z,91.20
2022-12-11T09:11:04.851Z,91.20
2022-12-11T09:12:04.838Z,92.00
2022-12-11T09:13:04.789Z,97.60
2022-12-11T09:14:07.645Z,92.50
2022-12-11T09:15:04.789Z,90.30
2022-12-11T09:16:04.824Z,87.80
2022-12-11T09:17:04.797Z,85.50
2022-12-11T09:18:04.760Z,88.40
2022-12-11T09:19:04.733Z,89.30
2022-12-11T09:20:04.728Z,89.20
2022-12-11T09:21:04.719Z,93.90
2022-12-11T09:22:04.716Z,91.10
2022-12-11T09:23:04.700Z,91.60
2022-12-11T09:24:04.784Z,88.50
2022-12-11T09:25:04.720Z,86.20
2022-12-11T09:26:04.689Z,90.30
2022-12-11T09:27:04.662Z,91.90
2022-12-11T09:28:04.690Z,103.70
2022-12-11T09:29:04.632Z,89.40
2022-12-11T09:30:04.647Z,87.00
2022-12-11T09:31:04.672Z,94.30
2022-12-11T09:32:04.652Z,93.30
2022-12-11T09:33:04.590Z,90.10
2022-12-11T09:34:04.626Z,106.70
2022-12-11T09:35:04.560Z,86.30
2022-12-11T09:36:04.580Z,85.80
2022-12-11T09:37:04.560Z,79.70
2022-12-11T09:38:04.541Z,69.70
2022-12-11T09:39:04.529Z,72.30
2022-12-11T09:40:07.790Z,75.90
2022-12-11T09:41:04.518Z,70.20
2022-12-11T09:42:04.566Z,77.30
2022-12-11T09:43:04.480Z,73.80
2022-12-11T09:44:04.469Z,77.50
2022-12-11T09:45:04.460Z,83.50
2022-12-11T09:46:04.524Z,77.50
2022-12-11T09:47:04.465Z,80.50
2022-12-11T09:48:04.533Z,83.70
2022-12-11T09:49:04.419Z,82.70
2022-12-11T09:50:04.482Z,79.60
2022-12-11T09:51:04.409Z,79.20
2022-12-11T09:52:04.416Z,77.40
2022-12-11T09:53:04.370Z,73.30
2022-12-11T09:54:04.585Z,80.10
2022-12-11T09:55:04.357Z,77.20
2022-12-11T09:56:04.373Z,79.80
2022-12-11T09:57:04.343Z,76.50
2022-12-11T09:58:04.321Z,75.40
2022-12-11T09:59:04.312Z,70.00
2022-12-11T10:00:05.269Z,69.40
2022-12-11T10:01:04.337Z,64.90
2022-12-11T10:02:04.301Z,61.70
2022-12-11T10:03:04.273Z,69.40
2022-12-11T10:04:04.283Z,64.70
2022-12-11T10:05:04.343Z,69.70
2022-12-11T10:06:05.243Z,64.90
2022-12-11T10:07:04.273Z,68.80
2022-12-11T10:08:04.321Z,65.40
2022-12-11T10:09:04.240Z,66.20
2022-12-11T10:10:04.271Z,59.50
2022-12-11T10:11:04.192Z,63.40
2022-12-11T10:12:04.232Z,62.30
2022-12-11T10:13:04.167Z,61.40
2022-12-11T10:14:04.288Z,64.30
2022-12-11T10:15:04.195Z,63.20
2022-12-11T10:16:04.204Z,64.30
2022-12-11T10:17:04.140Z,62.50
2022-12-11T10:18:05.346Z,59.40
2022-12-11T10:19:04.093Z,63.60
2022-12-11T10:20:04.112Z,65.50
2022-12-11T10:21:04.077Z,66.00
2022-12-11T10:22:04.099Z,65.40
2022-12-11T10:23:04.064Z,61.80
2022-12-11T10:24:04.047Z,61.40
2022-12-11T10:25:12.362Z,68.00
2022-12-11T10:26:05.064Z,64.80
2022-12-11T10:27:04.025Z,66.40
2022-12-11T10:28:04.021Z,62.80
2022-12-11T10:29:03.996Z,64.70
2022-12-11T10:30:03.991Z,62.40
2022-12-11T10:31:04.056Z,64.00
2022-12-11T10:32:04.020Z,61.30
2022-12-11T10:33:03.945Z,63.10
2022-12-11T10:34:03.958Z,58.90
2022-12-11T10:35:04.114Z,62.30
2022-12-11T10:36:03.928Z,61.50
2022-12-11T10:37:03.914Z,60.90
2022-12-11T10:38:03.954Z,63.60
2022-12-11T10:39:03.895Z,64.10
2022-12-11T10:40:03.894Z,60.10
2022-12-11T10:41:03.867Z,57.40
2022-12-11T10:42:03.960Z,62.60
2022-12-11T10:43:03.835Z,59.30
2022-12-11T10:44:03.864Z,63.60
2022-12-11T10:45:03.816Z,61.30
2022-12-11T10:46:04.129Z,70.80
2022-12-11T10:47:03.814Z,63.90
2022-12-11T10:48:03.809Z,64.10
2022-12-11T10:49:03.777Z,59.80
2022-12-11T10:50:03.868Z,56.10
2022-12-11T10:51:03.780Z,61.60
2022-12-11T10:52:03.769Z,60.10
2022-12-11T10:53:03.750Z,57.80
2022-12-11T10:54:07.127Z,53.10
2022-12-11T10:55:03.761Z,51.40
2022-12-11T10:56:03.773Z,56.80
2022-12-11T10:57:03.738Z,57.50
2022-12-11T10:58:03.698Z,57.00
2022-12-11T10:59:03.676Z,53.60
2022-12-11T11:00:03.690Z,54.50
2022-12-11T11:01:03.693Z,58.70
2022-12-11T11:02:03.765Z,63.70
2022-12-11T11:03:03.675Z,59.20
2022-12-11T11:04:03.702Z,58.60
2022-12-11T11:05:03.649Z,55.00
2022-12-11T11:06:03.618Z,53.80
2022-12-11T11:07:03.597Z,56.50
2022-12-11T11:08:03.722Z,55.30
2022-12-11T11:09:03.559Z,51.80
2022-12-11T11:10:03.863Z,52.70
2022-12-11T11:11:03.592Z,54.20
2022-12-11T11:12:07.931Z,54.10
2022-12-11T11:13:03.516Z,57.20
2022-12-11T11:14:03.559Z,56.10
2022-12-11T11:15:03.488Z,55.80
2022-12-11T11:16:03.607Z,50.40
2022-12-11T11:17:03.467Z,57.70
2022-12-11T11:18:03.491Z,56.80
2022-12-11T11:19:03.441Z,53.20
2022-12-11T11:20:03.443Z,52.20
2022-12-11T11:21:03.423Z,54.90
2022-12-11T11:22:03.422Z,54.20
2022-12-11T11:23:03.410Z,53.30
2022-12-11T11:24:03.432Z,50.10
2022-12-11T11:25:03.384Z,51.70
2022-12-11T11:26:03.450Z,48.70
2022-12-11T11:27:18.785Z,50.40
2022-12-11T11:28:04.406Z,53.50
2022-12-11T11:29:03.339Z,52.10
2022-12-11T11:30:03.367Z,52.10
2022-12-11T11:31:03.356Z,54.80
2022-12-11T11:32:03.298Z,52.10
2022-12-11T11:33:03.300Z,52.60
2022-12-11T11:34:03.423Z,51.80
2022-12-11T11:35:03.279Z,50.50
2022-12-11T11:36:03.314Z,51.00
2022-12-11T11:37:03.241Z,51.90
2022-12-11T11:38:03.289Z,50.80
2022-12-11T11:39:03.232Z,52.40
2022-12-11T11:40:03.238Z,49.30
2022-12-11T11:41:07.598Z,49.00
2022-12-11T11:42:04.192Z,52.70
2022-12-11T11:43:03.200Z,51.70
2022-12-11T11:44:03.181Z,49.50
2022-12-11T11:45:03.261Z,48.80
2022-12-11T11:46:03.165Z,46.90
2022-12-11T11:47:03.140Z,50.90
2022-12-11T11:48:07.852Z,50.10
2022-12-11T11:49:04.112Z,49.50
2022-12-11T11:50:03.366Z,53.50
2022-12-11T11:51:03.111Z,60.90
2022-12-11T11:52:03.163Z,47.70
2022-12-11T11:53:03.102Z,50.20
2022-12-11T11:54:03.116Z,53.60
2022-12-11T11:55:03.052Z,44.70
2022-12-11T11:56:03.054Z,46.00
2022-12-11T11:57:03.024Z,48.60
2022-12-11T11:58:03.084Z,46.80
2022-12-11T11:59:03.034Z,49.80
2022-12-11T12:00:03.002Z,48.40
2022-12-11T12:01:02.993Z,50.70
2022-12-11T12:02:02.995Z,51.80
2022-12-11T12:03:03.006Z,47.70
2022-12-11T12:04:03.368Z,44.50
2022-12-11T12:05:02.937Z,44.60
2022-12-11T12:06:02.956Z,47.70
2022-12-11T12:07:02.966Z,44.70
2022-12-11T12:08:02.959Z,42.90
2022-12-11T12:09:02.924Z,44.50
2022-12-11T12:10:02.924Z,45.80
2022-12-11T12:11:02.894Z,45.70
2022-12-11T12:12:02.893Z,43.90
2022-12-11T12:13:02.856Z,43.80
2022-12-11T12:14:03.431Z,43.90
2022-12-11T12:15:02.837Z,40.40
2022-12-11T12:16:02.907Z,37.50
2022-12-11T12:17:02.868Z,41.30
2022-12-11T12:18:02.840Z,41.00
2022-12-11T12:19:02.797Z,40.80
2022-12-11T12:20:02.876Z,39.60
2022-12-11T12:21:02.764Z,36.70
2022-12-11T12:22:02.887Z,37.50
2022-12-11T12:23:02.754Z,39.10
2022-12-11T12:24:02.791Z,40.80
2022-12-11T12:25:02.735Z,38.50
2022-12-11T12:26:02.724Z,36.70
2022-12-11T12:27:02.733Z,39.00
2022-12-11T12:28:02.695Z,36.30
2022-12-11T12:29:02.695Z,35.40
2022-12-11T12:30:02.749Z,33.00
2022-12-11T12:31:02.668Z,35.60
2022-12-11T12:32:02.723Z,38.10
2022-12-11T12:33:02.645Z,34.90
2022-12-11T12:34:02.637Z,34.90
2022-12-11T12:35:02.664Z,37.90
2022-12-11T12:36:06.814Z,38.50
2022-12-11T12:37:02.610Z,38.50
2022-12-11T12:38:02.689Z,33.60
2022-12-11T12:39:02.588Z,37.00
2022-12-11T12:40:02.919Z,39.70
2022-12-11T12:41:02.564Z,40.00
2022-12-11T12:42:07.230Z,34.70
2022-12-11T12:43:03.526Z,35.70
2022-12-11T12:44:02.605Z,34.70
2022-12-11T12:45:02.515Z,35.30
2022-12-11T12:46:02.580Z,37.00
2022-12-11T12:47:02.519Z,34.00
2022-12-11T12:48:02.509Z,34.60
2022-12-11T12:49:02.477Z,34.40
2022-12-11T12:50:02.524Z,36.30
2022-12-11T12:51:02.446Z,32.50